This is the latest recevied weather packets stored in our database for station/object KD5VOO. If no packets are shown the sender has not sent any weather packets the latest 1 day(s).
| Time | Temp. | Humidity | Pressure | Rain* | Wind** | Luminosity | Snow |
|---|---|---|---|---|---|---|---|
| 1778030314 | 25° C | 62% | 1007.5 hPa | 0 mm | 0.45 m/s, 202° | 0 W/m² | - |
| 1778030011 | 25° C | 62% | 1007.5 hPa | 0 mm | 0.45 m/s, 240° | 0 W/m² | - |
| 1778029708 | 25.56° C | 62% | 1007.8 hPa | 0 mm | 0.89 m/s, 188° | 0 W/m² | - |
| 1778029406 | 25.56° C | 62% | 1007.5 hPa | 0 mm | 0 m/s | 0 W/m² | - |
| 1778029103 | 25.56° C | 62% | 1007.5 hPa | 0 mm | 1.34 m/s, 187° | 0 W/m² | - |
| 1778028800 | 25.56° C | 61% | 1007.5 hPa | 0 mm | 1.79 m/s, 193° | 0 W/m² | - |
| 1778028496 | 25.56° C | 61% | 1007.1 hPa | 0 mm | 1.34 m/s, 207° | 0 W/m² | - |
| 1778028193 | 25.56° C | 61% | 1007.1 hPa | 0 mm | 1.34 m/s, 177° | 0 W/m² | - |
| 1778027889 | 25.56° C | 61% | 1007.5 hPa | 0 mm | 2.24 m/s, 209° | 0 W/m² | - |
| 1778027586 | 26.11° C | 61% | 1007.5 hPa | 0 mm | 1.79 m/s, 187° | 2 W/m² | - |
| 1778027282 | 26.11° C | 61% | 1007.1 hPa | 0 mm | 2.68 m/s, 237° | 5 W/m² | - |
| 1778026979 | 26.11° C | 60% | 1007.5 hPa | 0 mm | 1.34 m/s, 210° | 7 W/m² | - |
| 1778026674 | 26.67° C | 60% | 1007.1 hPa | 0 mm | 0.89 m/s, 220° | 10 W/m² | - |
| 1778026372 | 26.67° C | 60% | 1007.1 hPa | 0 mm | 4.02 m/s, 213° | 11 W/m² | - |
| 1778026069 | 26.67° C | 59% | 1007.5 hPa | 0 mm | 2.24 m/s, 172° | 13 W/m² | - |
| 1778025766 | 26.67° C | 59% | 1007.5 hPa | 0 mm | 1.34 m/s, 178° | 17 W/m² | - |
| 1778025463 | 26.67° C | 59% | 1007.5 hPa | 0 mm | 0.89 m/s, 183° | 23 W/m² | - |
| 1778025161 | 26.67° C | 59% | 1007.5 hPa | 0 mm | 3.58 m/s, 237° | 24 W/m² | - |
| 1778024857 | 26.67° C | 58% | 1007.5 hPa | 0 mm | 2.24 m/s, 165° | 30 W/m² | - |
| 1778024555 | 27.22° C | 57% | 1007.5 hPa | 0 mm | 0.89 m/s, 172° | 38 W/m² | - |
| 1778024251 | 27.22° C | 57% | 1007.1 hPa | 0 mm | 2.24 m/s, 198° | 30 W/m² | - |
| 1778023950 | 27.22° C | 57% | 1007.1 hPa | 0 mm | 3.13 m/s, 273° | 36 W/m² | - |
| 1778023646 | 27.22° C | 57% | 1007.5 hPa | 0 mm | 1.79 m/s, 226° | 24 W/m² | - |
| 1778023344 | 27.22° C | 57% | 1007.1 hPa | 0 mm | 0.89 m/s, 196° | 22 W/m² | - |
| 1778023040 | 27.78° C | 56% | 1007.5 hPa | 0 mm | 1.79 m/s, 195° | 21 W/m² | - |
* Rain latest hour (hover to see other rain measurements)
** Current wind speed in m/s (hover to see current wind gust speed)